createdAt,value
2023-01-26T01:26:10.853Z,-4.56
2023-01-26T01:28:39.021Z,-4.61
2023-01-26T01:31:07.648Z,-4.73
2023-01-26T01:33:36.607Z,-4.75
2023-01-26T01:36:06.194Z,-4.73
2023-01-26T01:38:34.040Z,-4.81
2023-01-26T01:41:01.624Z,-4.80
2023-01-26T01:43:29.364Z,-4.75
2023-01-26T01:45:57.415Z,-4.95
2023-01-26T01:48:26.853Z,-5.05
2023-01-26T01:50:56.781Z,-4.97
2023-01-26T01:53:28.213Z,-5.04
2023-01-26T01:56:01.315Z,-5.10
2023-01-26T01:58:29.729Z,-5.18
2023-01-26T02:00:59.253Z,-5.23
2023-01-26T02:03:27.131Z,-5.32
2023-01-26T02:05:56.191Z,-5.38
2023-01-26T02:08:27.607Z,-5.39
2023-01-26T02:10:57.163Z,-5.41
2023-01-26T02:13:25.296Z,-5.44
2023-01-26T02:15:53.045Z,-5.47
2023-01-26T02:18:21.665Z,-5.44
2023-01-26T02:20:54.694Z,-5.43
2023-01-26T02:23:44.094Z,-5.42
2023-01-26T02:26:16.616Z,-5.43
2023-01-26T02:28:46.462Z,-5.47
2023-01-26T02:31:14.686Z,-5.45
2023-01-26T02:33:43.136Z,-5.43
2023-01-26T02:36:18.506Z,-5.41
2023-01-26T02:39:09.333Z,-5.35
2023-01-26T02:41:55.131Z,-5.30
2023-01-26T02:44:24.919Z,-5.28
2023-01-26T02:46:53.278Z,-5.30
2023-01-26T02:49:40.003Z,-5.30
2023-01-26T02:52:08.198Z,-5.29
2023-01-26T02:54:54.900Z,-5.23
2023-01-26T02:57:23.366Z,-5.10
2023-01-26T02:59:52.161Z,-5.08
2023-01-26T03:02:19.864Z,-5.11
2023-01-26T03:04:47.741Z,-5.04
2023-01-26T03:07:15.620Z,-5.04
2023-01-26T03:09:43.226Z,-5.03
2023-01-26T03:12:10.827Z,-5.13
2023-01-26T03:14:38.415Z,-5.05
2023-01-26T03:17:06.222Z,-5.12
2023-01-26T03:19:52.308Z,-5.10
2023-01-26T03:22:38.348Z,-5.27
2023-01-26T03:25:24.920Z,-5.38
2023-01-26T03:27:54.524Z,-5.45
2023-01-26T03:30:22.207Z,-5.44
2023-01-26T03:32:50.807Z,-5.32
2023-01-26T03:35:22.863Z,-5.23
2023-01-26T03:37:55.193Z,-5.30
2023-01-26T03:41:04.608Z,-5.40
2023-01-26T03:43:51.581Z,-5.36
2023-01-26T03:46:37.648Z,-5.36
2023-01-26T03:49:24.842Z,-5.39
2023-01-26T03:52:13.628Z,-5.39
2023-01-26T03:55:00.816Z,-5.53
2023-01-26T03:57:29.640Z,-5.52
2023-01-26T03:59:57.282Z,-5.70
2023-01-26T04:02:46.123Z,-5.75
2023-01-26T04:05:32.322Z,-5.72
2023-01-26T04:08:22.263Z,-5.63
2023-01-26T04:10:51.847Z,-5.87
2023-01-26T04:13:38.706Z,-5.78
2023-01-26T04:16:28.501Z,-5.83
2023-01-26T04:19:14.609Z,-5.89
2023-01-26T04:21:42.197Z,-6.03
2023-01-26T04:24:22.598Z,-6.00
2023-01-26T04:26:56.618Z,-6.11
2023-01-26T04:29:28.389Z,-6.10
2023-01-26T04:31:58.377Z,-6.08
2023-01-26T04:34:26.754Z,-6.17
2023-01-26T04:36:54.724Z,-6.09
2023-01-26T04:39:25.710Z,-6.10
2023-01-26T04:41:56.835Z,-6.16
2023-01-26T04:44:24.545Z,-6.06
2023-01-26T04:46:52.798Z,-6.18
2023-01-26T04:49:21.017Z,-6.23
2023-01-26T04:51:48.976Z,-6.16
2023-01-26T04:54:17.329Z,-6.31
2023-01-26T04:56:46.081Z,-6.37
2023-01-26T04:59:14.664Z,-6.45
2023-01-26T05:01:43.726Z,-6.49
2023-01-26T05:04:12.830Z,-6.49
2023-01-26T05:06:43.360Z,-6.41
2023-01-26T05:09:11.651Z,-6.46
2023-01-26T05:11:41.007Z,-6.36
2023-01-26T05:14:16.134Z,-6.30
2023-01-26T05:17:04.860Z,-6.40
2023-01-26T05:19:51.120Z,-6.28
2023-01-26T05:22:36.547Z,-6.24
2023-01-26T05:25:27.370Z,-6.32
2023-01-26T05:28:08.210Z,-6.34
2023-01-26T05:30:35.956Z,-6.43
2023-01-26T05:33:05.246Z,-6.41
2023-01-26T05:35:33.587Z,-6.38
2023-01-26T05:38:01.389Z,-6.27
2023-01-26T05:40:31.822Z,-6.13
2023-01-26T05:43:04.077Z,-6.17
2023-01-26T05:46:09.989Z,-6.17
2023-01-26T05:48:40.573Z,-6.17
2023-01-26T05:51:08.178Z,-6.27
2023-01-26T05:53:37.317Z,-6.20
2023-01-26T05:56:05.322Z,-6.01
2023-01-26T05:58:35.462Z,-6.14
2023-01-26T06:01:04.940Z,-6.21
2023-01-26T06:03:40.324Z,-6.23
2023-01-26T06:06:08.009Z,-6.18
2023-01-26T06:08:58.425Z,-6.13
2023-01-26T06:11:32.394Z,-6.08
2023-01-26T06:14:22.809Z,-6.07
2023-01-26T06:16:50.700Z,-5.97
2023-01-26T06:19:19.344Z,-5.99
2023-01-26T06:21:53.710Z,-5.86
2023-01-26T06:24:21.619Z,-5.88
2023-01-26T06:26:50.292Z,-5.68
2023-01-26T06:29:19.118Z,-5.91
2023-01-26T06:31:47.289Z,-5.97
2023-01-26T06:34:14.978Z,-5.68
2023-01-26T06:36:43.674Z,-5.85
2023-01-26T06:39:17.844Z,-5.70
2023-01-26T06:41:57.209Z,-5.65
2023-01-26T06:44:24.926Z,-5.58
2023-01-26T06:46:52.730Z,-5.54
2023-01-26T06:49:20.404Z,-5.41
2023-01-26T06:52:05.323Z,-5.51
2023-01-26T06:54:50.102Z,-5.50
2023-01-26T06:57:17.725Z,-5.17
2023-01-26T07:00:06.212Z,-5.09
2023-01-26T07:02:36.635Z,-5.00
2023-01-26T07:05:06.710Z,-4.97
2023-01-26T11:58:24.737Z,2.59
2023-01-26T12:00:59.616Z,2.77
2023-01-26T12:03:48.437Z,2.88
2023-01-26T12:06:20.394Z,3.06
2023-01-26T12:09:19.171Z,3.03
2023-01-26T12:12:18.248Z,3.13
2023-01-26T12:14:47.677Z,3.25
2023-01-26T12:17:19.009Z,3.44
2023-01-26T12:20:06.342Z,3.59
2023-01-26T12:22:39.051Z,3.47
2023-01-26T12:25:35.598Z,3.79
2023-01-26T12:28:30.321Z,4.02
2023-01-26T12:43:15.180Z,5.13
2023-01-26T12:45:44.444Z,5.33
2023-01-26T12:48:20.655Z,5.07
2023-01-26T12:50:51.363Z,4.87
2023-01-26T12:53:44.120Z,5.02
2023-01-26T12:56:20.409Z,5.29
2023-01-26T12:58:48.903Z,5.66
2023-01-26T13:01:21.431Z,5.48
2023-01-26T13:04:13.787Z,5.22
2023-01-26T13:06:42.799Z,5.39
2023-01-26T13:09:37.676Z,5.19
2023-01-26T13:12:05.505Z,4.97
2023-01-26T13:14:38.132Z,5.11
2023-01-26T13:17:15.144Z,4.88
2023-01-26T17:00:26.857Z,-3.72
2023-01-26T17:02:54.488Z,-3.75
2023-01-26T17:05:23.139Z,-3.81
2023-01-26T17:07:53.732Z,-3.80
2023-01-26T17:10:22.683Z,-3.80
2023-01-26T17:12:50.534Z,-3.83
2023-01-26T17:15:18.205Z,-3.86
2023-01-26T17:17:45.864Z,-3.85
2023-01-26T17:20:19.387Z,-3.83
2023-01-26T17:22:48.585Z,-3.81
2023-01-26T17:25:17.480Z,-3.75
2023-01-26T17:27:46.554Z,-3.74
2023-01-26T17:30:14.193Z,-3.79
2023-01-26T17:32:42.464Z,-3.83
2023-01-26T17:35:10.380Z,-3.86
2023-01-26T17:37:39.569Z,-3.87
2023-01-26T17:40:08.592Z,-3.90
2023-01-26T17:42:36.516Z,-3.91
2023-01-26T17:45:04.366Z,-3.94
2023-01-26T17:47:35.305Z,-4.02
2023-01-26T17:50:02.890Z,-4.10
2023-01-26T17:52:31.543Z,-4.18
2023-01-26T17:55:05.378Z,-4.21
2023-01-26T17:57:33.962Z,-4.24
2023-01-26T18:00:01.530Z,-4.23
2023-01-26T18:02:39.550Z,-4.24
2023-01-26T18:05:09.034Z,-4.29
2023-01-26T18:07:36.657Z,-4.34
2023-01-26T18:10:04.778Z,-4.40
2023-01-26T18:12:33.333Z,-4.45
2023-01-26T18:15:01.285Z,-4.50
2023-01-26T18:17:28.805Z,-4.56
2023-01-26T18:19:56.354Z,-4.62
2023-01-26T18:22:24.075Z,-4.68
2023-01-26T18:24:52.895Z,-4.70
2023-01-26T18:27:20.392Z,-4.75
2023-01-26T18:29:48.414Z,-4.77
2023-01-26T18:32:16.029Z,-4.80
2023-01-26T18:34:44.264Z,-4.84
2023-01-26T18:37:12.780Z,-4.84
2023-01-26T18:39:40.352Z,-4.83
2023-01-26T18:42:08.174Z,-4.81
2023-01-26T18:44:36.462Z,-4.80
2023-01-26T18:47:04.961Z,-4.78
2023-01-26T18:49:34.957Z,-4.81
2023-01-26T18:52:02.572Z,-4.84
2023-01-26T18:54:31.004Z,-4.87
2023-01-26T18:56:58.628Z,-4.88
2023-01-26T18:59:26.255Z,-4.89
2023-01-26T19:01:55.513Z,-4.90
2023-01-26T19:04:23.077Z,-4.94
2023-01-26T19:06:51.073Z,-4.92
2023-01-26T19:09:18.665Z,-4.92
2023-01-26T19:11:46.300Z,-4.93
2023-01-26T19:14:14.748Z,-4.86
2023-01-26T19:16:47.772Z,-4.86
2023-01-26T19:19:15.482Z,-4.89
2023-01-26T19:21:43.149Z,-4.89
2023-01-26T19:24:11.001Z,-4.95
2023-01-26T19:26:38.831Z,-4.98
2023-01-26T19:29:06.360Z,-4.94
2023-01-26T19:31:35.250Z,-4.94
2023-01-26T19:34:04.986Z,-4.98
2023-01-26T19:36:34.358Z,-5.03
2023-01-26T19:39:04.826Z,-5.09
2023-01-26T19:41:34.674Z,-5.19
2023-01-26T19:44:02.548Z,-5.24
2023-01-26T19:46:30.179Z,-5.27
2023-01-26T19:48:57.857Z,-5.29
2023-01-26T19:51:26.427Z,-5.30
2023-01-26T19:53:58.168Z,-5.29
2023-01-26T19:56:33.487Z,-5.25
2023-01-26T19:59:02.717Z,-5.23
2023-01-26T20:01:33.379Z,-5.23
2023-01-26T20:04:09.305Z,-5.23
2023-01-26T20:06:37.145Z,-5.22
2023-01-26T20:09:06.007Z,-5.26
2023-01-26T20:11:34.272Z,-5.26
2023-01-26T20:14:08.698Z,-5.21
2023-01-26T20:16:37.245Z,-5.19
2023-01-26T20:19:05.160Z,-5.18
2023-01-26T20:21:33.324Z,-5.16
2023-01-26T20:24:05.568Z,-5.13
2023-01-26T20:26:33.882Z,-5.18
2023-01-26T20:29:01.485Z,-5.17
2023-01-26T20:31:29.291Z,-5.16
2023-01-26T20:33:58.592Z,-5.13
2023-01-26T20:36:27.958Z,-5.11
2023-01-26T20:38:56.156Z,-5.11
2023-01-26T20:41:29.947Z,-5.06
2023-01-26T20:44:01.976Z,-5.03
2023-01-26T20:46:42.161Z,-5.04
2023-01-26T20:49:16.154Z,-5.02
2023-01-26T20:51:45.707Z,-4.96
2023-01-26T20:54:16.093Z,-4.89
2023-01-26T20:56:46.013Z,-4.86
2023-01-26T20:59:14.255Z,-4.84
2023-01-26T21:01:42.640Z,-4.84
2023-01-26T21:04:11.083Z,-4.82
2023-01-26T21:06:41.945Z,-4.76
2023-01-26T21:09:12.519Z,-4.74
2023-01-26T21:11:41.986Z,-4.78
2023-01-26T21:14:11.747Z,-4.83
2023-01-26T21:16:40.861Z,-4.92
2023-01-26T21:19:09.069Z,-4.96
2023-01-26T21:21:37.707Z,-4.90
2023-01-26T21:24:07.535Z,-4.87
2023-01-26T21:26:35.892Z,-4.82
2023-01-26T21:29:08.012Z,-4.83
2023-01-26T21:31:36.366Z,-4.86
2023-01-26T21:34:04.967Z,-4.85
2023-01-26T21:36:34.428Z,-4.86
2023-01-26T21:39:04.155Z,-4.86
2023-01-26T21:41:52.146Z,-4.88
2023-01-26T21:44:31.785Z,-4.92
2023-01-26T21:47:01.419Z,-4.95
2023-01-26T21:49:32.057Z,-4.99
2023-01-26T21:52:18.949Z,-5.01
2023-01-26T21:54:48.314Z,-5.06
2023-01-26T21:57:35.231Z,-5.07
2023-01-26T22:00:04.908Z,-5.09
2023-01-26T22:02:36.263Z,-5.09
2023-01-26T22:05:04.254Z,-5.12
2023-01-26T22:07:33.296Z,-5.12
2023-01-26T22:10:02.178Z,-5.13
2023-01-26T22:12:30.778Z,-5.21
2023-01-26T22:14:59.193Z,-5.23
2023-01-26T22:17:27.703Z,-5.27
2023-01-26T22:19:57.191Z,-5.26
2023-01-26T22:22:25.206Z,-5.28
2023-01-26T22:24:53.771Z,-5.20
2023-01-26T22:27:23.665Z,-5.19
2023-01-26T22:29:51.517Z,-5.19
2023-01-26T22:32:19.667Z,-5.19
2023-01-26T22:34:47.812Z,-5.22
2023-01-26T22:37:15.926Z,-5.19
2023-01-26T22:39:44.306Z,-5.24
2023-01-26T22:42:12.977Z,-5.24
2023-01-26T22:44:42.803Z,-5.25
2023-01-26T22:47:10.664Z,-5.24
2023-01-26T22:49:39.872Z,-5.28
2023-01-26T22:52:07.884Z,-5.24
2023-01-26T22:54:42.392Z,-5.22
2023-01-26T22:57:11.765Z,-5.27
2023-01-26T22:59:40.107Z,-5.21
2023-01-26T23:02:08.017Z,-5.24
2023-01-26T23:04:36.699Z,-5.28
2023-01-26T23:07:04.555Z,-5.32
2023-01-26T23:09:32.952Z,-5.34
2023-01-26T23:12:01.998Z,-5.31
2023-01-26T23:14:30.960Z,-5.29
2023-01-26T23:16:59.847Z,-5.33
2023-01-26T23:19:27.814Z,-5.37
2023-01-26T23:21:55.952Z,-5.43
2023-01-26T23:24:24.741Z,-5.41
2023-01-26T23:26:53.046Z,-5.51
2023-01-26T23:29:20.878Z,-5.51
2023-01-26T23:31:48.888Z,-5.52
2023-01-26T23:34:17.348Z,-5.56
2023-01-26T23:36:46.660Z,-5.57
2023-01-26T23:39:14.440Z,-5.56
2023-01-26T23:41:42.670Z,-5.58
2023-01-26T23:44:13.483Z,-5.61
2023-01-26T23:46:42.113Z,-5.59
2023-01-26T23:49:11.264Z,-5.58
2023-01-26T23:51:39.645Z,-5.64
2023-01-26T23:54:09.127Z,-5.63
2023-01-26T23:56:37.027Z,-5.68
2023-01-26T23:59:05.534Z,-5.71
